Regal Star — ESCM — position and weather

sailwx.info

Track history (hours):
 
Tides and Currents Weather Stations Pressure Air Temp Water Temp Dewpoint Dewpoint Depression Visibility Wind Speed Wind Dir Waves Ship Positions

Regal Star

Last reported at 2016-Jun-30 01:04 UTC. Time now 2016-Jun-30 03:25 UTC.
Position N 59°27' E 022°00'.

Length 157 m; draft 6.5 m.

Type: Ship (hazmat cat B). MMSI: 276554000.

Date/timePositionNaut miles runAvg speedWind from/ knotsBaromVisibWave heightAir tempDewpointWater temp
2016-Jun-30 01:04N 59°27' E 022°00'816.0
2016-Jun-30 00:33N 59°30' E 021°45'1715.9
2016-Jun-29 23:31N 59°34' E 021°13'9 0.4
2016-Jun-29 00:15N 59°31' E 020°56'1115.2
2016-Jun-28 23:34N 59°29' E 021°16'1515.3
2016-Jun-28 22:33N 59°25' E 021°45'1615.4
2016-Jun-28 21:30N 59°22' E 022°16'1515.6
2016-Jun-28 20:34N 59°20' E 022°45'1615.6
2016-Jun-28 19:31N 59°21' E 023°17'1515.6
2016-Jun-28 18:34N 59°22' E 023°46'10 9.4
2016-Jun-28 17:31N 59°20' E 024°05'11 0.8
2016-Jun-28 04:33N 59°23' E 023°44'1615.7
2016-Jun-28 03:33N 59°23' E 023°13'10 9.7
2016-Jun-28 02:33N 59°23' E 022°54'1312.8
2016-Jun-28 01:33N 59°24' E 022°29'1515.5
2016-Jun-28 00:33N 59°28' E 021°60'1615.6
2016-Jun-27 23:33N 59°32' E 021°31'1715.5
2016-Jun-27 22:30N 59°37' E 020°59'1515.6
2016-Jun-27 21:33N 59°41' E 020°32'1515.1
2016-Jun-27 20:33N 59°45' E 020°03'94 3.0
2016-Jun-26 13:25N 59°23' E 023°02'4615.9
2016-Jun-26 10:33N 59°31' E 021°34'1615.8
2016-Jun-26 09:32N 59°36' E 021°04'8 0.8
2016-Jun-25 23:31N 59°29' E 021°12'1515.5
2016-Jun-25 22:33N 59°26' E 021°41'1515.6
2016-Jun-25 21:34N 59°22' E 022°10'1515.3
2016-Jun-25 20:33N 59°20' E 022°40'2215.4
2016-Jun-25 19:08N 59°22' E 023°23'1015.5
2016-Jun-25 18:30N 59°22' E 023°42'  
2016-Jun-23 04:33N 59°23' E 023°46'1615.9
2016-Jun-23 03:34N 59°23' E 023°15'1615.9
2016-Jun-23 02:33N 59°23' E 022°44'1615.4
2016-Jun-23 01:33N 59°25' E 022°14'1515.3
2016-Jun-23 00:33N 59°30' E 021°45'1515.3
2016-Jun-22 23:33N 59°34' E 021°16'5 0.2
2016-Jun-21 23:33N 59°29' E 021°15'1615.1
2016-Jun-21 22:31N 59°25' E 021°46'5015.0
2016-Jun-21 19:12N 59°22' E 023°23'1015.3
2016-Jun-21 18:33N 59°23' E 023°42'6 0.4
2016-Jun-21 04:03N 59°23' E 023°30'714.7
2016-Jun-21 03:33N 59°23' E 023°16'1615.2
2016-Jun-21 02:30N 59°23' E 022°45'2215.6
2016-Jun-21 01:04N 59°27' E 022°01'815.9
2016-Jun-21 00:33N 59°30' E 021°46'1615.8
2016-Jun-20 23:33N 59°34' E 021°16'  
Track history (hours):
 
Tides and Currents Weather Stations Pressure Air Temp Water Temp Dewpoint Dewpoint Depression Visibility Wind Speed Wind Dir Waves Ship Positions

Regal Star

Last reported at 2016-Jun-30 01:04 UTC. Time now 2016-Jun-30 03:25 UTC.
Position N 59°27' E 022°00'.

Length 157 m; draft 6.5 m.

Type: Ship (hazmat cat B). MMSI: 276554000.

Date/timePositionNaut miles runAvg speedWind from/ knotsBaromVisibWave heightAir tempDewpointWater temp
2016-Jun-30 01:04N 59°27' E 022°00'816.0
2016-Jun-30 00:33N 59°30' E 021°45'1715.9
2016-Jun-29 23:31N 59°34' E 021°13'9 0.4
2016-Jun-29 00:15N 59°31' E 020°56'1115.2
2016-Jun-28 23:34N 59°29' E 021°16'1515.3
2016-Jun-28 22:33N 59°25' E 021°45'1615.4
2016-Jun-28 21:30N 59°22' E 022°16'1515.6
2016-Jun-28 20:34N 59°20' E 022°45'1615.6
2016-Jun-28 19:31N 59°21' E 023°17'1515.6
2016-Jun-28 18:34N 59°22' E 023°46'10 9.4
2016-Jun-28 17:31N 59°20' E 024°05'11 0.8
2016-Jun-28 04:33N 59°23' E 023°44'1615.7
2016-Jun-28 03:33N 59°23' E 023°13'10 9.7
2016-Jun-28 02:33N 59°23' E 022°54'1312.8
2016-Jun-28 01:33N 59°24' E 022°29'1515.5
2016-Jun-28 00:33N 59°28' E 021°60'1615.6
2016-Jun-27 23:33N 59°32' E 021°31'1715.5
2016-Jun-27 22:30N 59°37' E 020°59'1515.6
2016-Jun-27 21:33N 59°41' E 020°32'1515.1
2016-Jun-27 20:33N 59°45' E 020°03'94 3.0
2016-Jun-26 13:25N 59°23' E 023°02'4615.9
2016-Jun-26 10:33N 59°31' E 021°34'1615.8
2016-Jun-26 09:32N 59°36' E 021°04'8 0.8
2016-Jun-25 23:31N 59°29' E 021°12'1515.5
2016-Jun-25 22:33N 59°26' E 021°41'1515.6
2016-Jun-25 21:34N 59°22' E 022°10'1515.3
2016-Jun-25 20:33N 59°20' E 022°40'2215.4
2016-Jun-25 19:08N 59°22' E 023°23'1015.5
2016-Jun-25 18:30N 59°22' E 023°42'  
2016-Jun-23 04:33N 59°23' E 023°46'1615.9
2016-Jun-23 03:34N 59°23' E 023°15'1615.9
2016-Jun-23 02:33N 59°23' E 022°44'1615.4
2016-Jun-23 01:33N 59°25' E 022°14'1515.3
2016-Jun-23 00:33N 59°30' E 021°45'1515.3
2016-Jun-22 23:33N 59°34' E 021°16'5 0.2
2016-Jun-21 23:33N 59°29' E 021°15'1615.1
2016-Jun-21 22:31N 59°25' E 021°46'5015.0
2016-Jun-21 19:12N 59°22' E 023°23'1015.3
2016-Jun-21 18:33N 59°23' E 023°42'6 0.4
2016-Jun-21 04:03N 59°23' E 023°30'714.7
2016-Jun-21 03:33N 59°23' E 023°16'1615.2
2016-Jun-21 02:30N 59°23' E 022°45'2215.6
2016-Jun-21 01:04N 59°27' E 022°01'815.9
2016-Jun-21 00:33N 59°30' E 021°46'1615.8
2016-Jun-20 23:33N 59°34' E 021°16'  

Dump ship's entire track history